ADDS METAR Data INFO
IDs: Format: Raw Decoded Include TAF

Data at: 1113 UTC 13 Dec 2017

KGYB 131055Z AUTO 00000KT 10SM CLR M01/M02 A3017 RMK AO2 T10061016
KGYB 131035Z AUTO 00000KT 10SM CLR M01/M02 A3017 RMK AO2 T10081018
KGYB 131015Z AUTO 00000KT 10SM CLR 00/M01 A3017 RMK AO2 T10031014
KGYB 130955Z AUTO 00000KT 10SM CLR 00/M02 A3017 RMK AO2 T10051018
KGYB 130935Z AUTO 00000KT 10SM CLR 00/M01 A3018 RMK AO2 T10011010
KGYB 130915Z AUTO 00000KT 10SM CLR M01/M02 A3018 RMK AO2 T10101022
KGYB 130855Z AUTO 00000KT 10SM CLR 00/M01 A3019 RMK AO2 T00001010
KGYB 130835Z AUTO 00000KT 10SM CLR 00/M01 A3020 RMK AO2 T10041015
KGYB 130815Z AUTO 00000KT 10SM CLR 00/M01 A3020 RMK AO2 T00021007
KGYB 130755Z AUTO 00000KT 10SM CLR 00/M01 A3022 RMK AO2 T00001012
KGYB 130735Z AUTO 00000KT 10SM CLR 00/M01 A3022 RMK AO2 T00011006
KGYB 130715Z AUTO 00000KT 10SM CLR 00/M01 A3022 RMK AO2 T00011010
KGYB 130655Z AUTO 00000KT 10SM CLR 01/M01 A3022 RMK AO2 T00141009
KGYB 130635Z AUTO 00000KT 10SM CLR 02/00 A3023 RMK AO2 T00171005
KGYB 130615Z AUTO 00000KT 10SM CLR 02/00 A3024 RMK AO2 T00201005
KGYB 130555Z AUTO 00000KT 10SM CLR 02/00 A3025 RMK AO2 T00211003 10114 20016 401550016
KGYB 130535Z AUTO 00000KT 10SM CLR 02/M01 A3025 RMK AO2 T00181007
KGYB 130515Z AUTO 00000KT 10SM CLR 02/00 A3025 RMK AO2 T00161004
KGYB 130455Z AUTO 00000KT 10SM CLR 03/00 A3026 RMK AO2 T00251002
KGYB 130435Z AUTO 00000KT 10SM CLR 03/00 A3027 RMK AO2 T00261001
KGYB 130415Z AUTO 00000KT 10SM CLR 03/00 A3026 RMK AO2 T00301001
KGYB 130355Z AUTO 00000KT 10SM CLR 04/00 A3027 RMK AO2 T00351003
KGYB 130340Z AUTO 00000KT 10SM CLR 04/00 A3027 RMK AO2 T00411001
KGYB 130315Z AUTO 00000KT 10SM CLR 04/00 A3028 RMK AO2 T00381002
KGYB 130255Z AUTO 00000KT 10SM CLR 03/00 A3027 RMK AO2 T00340000
KGYB 130235Z AUTO 00000KT 10SM CLR 05/00 A3028 RMK AO2 T00461003
KGYB 130215Z AUTO 00000KT 10SM CLR 05/00 A3028 RMK AO2 T00481003
KGYB 130200Z AUTO 00000KT 10SM CLR 06/00 A3029 RMK AO2 T00631001
KGYB 130135Z AUTO 00000KT 10SM CLR 10/M03 A3028 RMK AO2 T01011028
KGYB 130055Z AUTO 33005KT 10SM CLR 10/M02 A3028 RMK AO2 T01021025
KGYB 130035Z AUTO 30004KT 10SM CLR 09/M01 A3028 RMK AO2 T00851013
KGYB 130015Z AUTO 27003KT 10SM CLR 09/00 A3027 RMK AO2 T00861004
KGYB 122355Z AUTO 00000KT 10SM CLR 12/M03 A3027 RMK AO2 T01151028 10155 20115
KGYB 122335Z AUTO 36003KT 10SM CLR 13/M03 A3028 RMK AO2 T01261029
KGYB 122315Z AUTO 00000KT 10SM CLR 14/M03 A3028 RMK AO2 T01351032
KGYB 122255Z AUTO 01004KT 10SM CLR 14/M03 A3028 RMK AO2 T01411033
KGYB 122235Z AUTO 01006KT 10SM CLR 15/M03 A3029 RMK AO2 T01451032
KGYB 122215Z AUTO 01007KT 10SM CLR 15/M03 A3029 RMK AO2 T01471031
KGYB 122155Z AUTO 35010G16KT 10SM CLR 15/M03 A3029 RMK AO2 T01501032
KGYB 122135Z AUTO 01009G15KT 10SM CLR 15/M03 A3029 RMK AO2 T01501030
KGYB 122115Z AUTO 36010G14KT 10SM CLR 15/M03 A3029 RMK AO2 T01531027
KGYB 122055Z AUTO 35010KT 10SM CLR 15/M02 A3029 RMK AO2 T01511023
KGYB 122035Z AUTO 36005G14KT 10SM CLR 15/M02 A3030 RMK AO2 T01521023
KGYB 122015Z AUTO 35011G17KT 10SM CLR 15/M02 A3030 RMK AO2 T01521021
KGYB 121955Z AUTO 36010G20KT 320V040 10SM CLR 15/M03 A3031 RMK AO2 T01471028
KGYB 121935Z AUTO 36008G17KT 10SM CLR 15/M02 A3032 RMK AO2 T01501024
KGYB 121915Z AUTO 34012G16KT 10SM CLR 15/M01 A3033 RMK AO2 T01491015
KGYB 121855Z AUTO 35007G15KT 10SM CLR 15/M02 A3034 RMK AO2 T01461019
KGYB 121835Z AUTO 01009KT 10SM CLR 15/M01 A3036 RMK AO2 T01451014
KGYB 121815Z AUTO 35010G15KT 330V040 10SM CLR 14/M01 A3037 RMK AO2 T01391011
KGYB 121755Z AUTO 35011KT 10SM CLR 14/M01 A3038 RMK AO2 T01361014 10136 20077
KGYB 121735Z AUTO 02008G14KT 330V030 10SM CLR 13/M01 A3039 RMK AO2 T01331014
KGYB 121715Z AUTO 02007G16KT 10SM CLR 13/M02 A3040 RMK AO2 T01301019
KGYB 121655Z AUTO 02012G16KT 360V060 10SM CLR 13/M02 A3040 RMK AO2 T01291019
KGYB 121635Z AUTO 36006G17KT 10SM CLR 13/M01 A3040 RMK AO2 T01261015
KGYB 121615Z AUTO 01008KT 320V030 10SM CLR 13/M01 A3040 RMK AO2 T01251013
KGYB 121555Z AUTO 01008G16KT 10SM CLR 12/M01 A3040 RMK AO2 T01161015
KGYB 121535Z AUTO 02011G16KT 10SM CLR 11/M02 A3040 RMK AO2 T01111016
KGYB 121515Z AUTO 01009G16KT 10SM CLR 10/M02 A3039 RMK AO2 T01041020
KGYB 121455Z AUTO 01007G14KT 10SM CLR 10/M02 A3038 RMK AO2 T00971021
KGYB 121435Z AUTO 01006KT 10SM CLR 09/M02 A3037 RMK AO2 T00901024
KGYB 121415Z AUTO 01006KT 10SM CLR 09/M02 A3037 RMK AO2 T00851025
KGYB 121355Z AUTO 01005KT 10SM CLR 08/M02 A3036 RMK AO2 T00791025
KGYB 121335Z AUTO 01005KT 10SM CLR 08/M02 A3035 RMK AO2 T00771025
KGYB 121315Z AUTO 01003KT 10SM CLR 08/M03 A3035 RMK AO2 T00831026
KGYB 121255Z AUTO 01005KT 10SM CLR 09/M03 A3034 RMK AO2 T00861026
KGYB 121235Z AUTO 01006KT 10SM CLR 09/M03 A3032 RMK AO2 T00911027
KGYB 121215Z AUTO 01007KT 10SM CLR 09/M03 A3031 RMK AO2 T00911026
KGYB 121155Z AUTO 01005KT 10SM CLR 09/M02 A3030 RMK AO2 T00901020 10120 20065
KGYB 121135Z AUTO 01005KT 10SM CLR 09/M02 A3029 RMK AO2 T00921017
KGYB 121115Z AUTO 36004KT 10SM CLR 10/M01 A3029 RMK AO2 T00981015
KGYB 121055Z AUTO 36005KT 10SM CLR 11/M01 A3028 RMK AO2 T01051012
KGYB 121035Z AUTO 01007KT 10SM CLR 11/M01 A3027 RMK AO2 T01071007
KGYB 121015Z AUTO 36006KT 10SM CLR 11/00 A3026 RMK AO2 T01101001
KGYB 120955Z AUTO 36005KT 10SM CLR 11/00 A3025 RMK AO2 T01060001
KGYB 120935Z AUTO 36006KT 10SM CLR 11/00 A3025 RMK AO2 T01100003
KGYB 120915Z AUTO 35005KT 10SM CLR 12/01 A3024 RMK AO2 T01150005
KGYB 120855Z AUTO 34007KT 10SM CLR 12/01 A3024 RMK AO2 T01170008
KGYB 120835Z AUTO 32005KT 10SM CLR 09/02 A3022 RMK AO2 T00850022
KGYB 120815Z AUTO 00000KT 10SM CLR 08/02 A3022 RMK AO2 T00760021
KGYB 120755Z AUTO 27003KT 10SM CLR 09/02 A3021 RMK AO2 T00920021
KGYB 120735Z AUTO 27003KT 10SM CLR 10/02 A3020 RMK AO2 T00980020
KGYB 120715Z AUTO 29003KT 10SM CLR 11/02 A3020 RMK AO2 T01050020
KGYB 120655Z AUTO 26004KT 10SM CLR 11/02 A3021 RMK AO2 T01070020
KGYB 120635Z AUTO 25004KT 10SM CLR 10/02 A3021 RMK AO2 T01040022
KGYB 120615Z AUTO 28004KT 10SM CLR 11/02 A3021 RMK AO2 T01090020
KGYB 120555Z AUTO 27003KT 10SM CLR 11/02 A3020 RMK AO2 T01120017 10177 20082 402380009
KGYB 120535Z AUTO 25003KT 10SM CLR 12/02 A3020 RMK AO2 T01160017
KGYB 120515Z AUTO 25004KT 10SM CLR 13/02 A3021 RMK AO2 T01250015
KGYB 120455Z AUTO 25003KT 10SM CLR 10/02 A3021 RMK AO2 T01010020
KGYB 120435Z AUTO 24003KT 10SM CLR 10/02 A3021 RMK AO2 T00990022
KGYB 120415Z AUTO 26004KT 10SM CLR 13/01 A3020 RMK AO2 T01250009
KGYB 120355Z AUTO 25003KT 10SM CLR 09/02 A3020 RMK AO2 T00870022
KGYB 120335Z AUTO 00000KT 10SM CLR 10/02 A3020 RMK AO2 T01010016
KGYB 120315Z AUTO 00000KT 10SM CLR 11/02 A3020 RMK AO2 T01090017
KGYB 120255Z AUTO 23003KT 10SM CLR 13/01 A3020 RMK AO2 T01250007
KGYB 120235Z AUTO 23003KT 10SM CLR 13/01 A3020 RMK AO2 T01250007
KGYB 120215Z AUTO 23003KT 10SM CLR 13/01 A3020 RMK AO2 T01250007
KGYB 120155Z AUTO 00000KT 10SM CLR 13/01 A3019 RMK AO2 T01270006
KGYB 120135Z AUTO 00000KT 10SM CLR 15/00 A3019 RMK AO2 T01501002
KGYB 120115Z AUTO 23003KT 10SM CLR 15/00 A3020 RMK AO2 T01470000
KGYB 120055Z AUTO 22003KT 10SM CLR 16/00 A3020 RMK AO2 T01571003
KGYB 120035Z AUTO 22004KT 10SM CLR 16/00 A3019 RMK AO2 T01600000
KGYB 120015Z AUTO 22004KT 10SM CLR 17/00 A3019 RMK AO2 T01661001
KGYB 112355Z AUTO 22003KT 10SM CLR 18/M01 A3019 RMK AO2 T01781007 10238 20178
KGYB 112335Z AUTO 22003KT 10SM CLR 19/M01 A3018 RMK AO2 T01921013
KGYB 112315Z AUTO 23003KT 10SM CLR 21/M02 A3018 RMK AO2 T02101018